Meppen Air Base

ETWM · Dolna Saksonia, Niemcy

Historia METAR ETWM · Meppen Air Base

Poniżej widzisz METAR-y z ostatnich kilku dni. Wybierz rok, aby przeglądać starsze METAR-y, począwszy od roku 2007.

2 grudnia 2022

Czas Kod Pogoda Temp. Widoczność Sufit Wiatr METAR/SPECI
20:20
U
2 °C 0 m - 050° 050° 9 kt METAR ETWM 021920Z AUTO 05009KT //// // ////// 02/M02 Q1026 ///
19:20
U
2 °C 0 m - 060° 060° 10 kt METAR ETWM 021820Z AUTO 06010KT //// // ////// 02/M02 Q1026 ///
18:20
U
2 °C 0 m - 060° 060° 9 kt METAR ETWM 021720Z AUTO 06009KT //// // ////// 02/M01 Q1026 ///
17:20
U
2 °C 0 m - 070° 070° 9 kt METAR ETWM 021620Z AUTO 07009KT //// // ////// 02/M01 Q1026 ///
16:20
U
2 °C 0 m - 050° 050° 8 kt METAR ETWM 021520Z AUTO 05008KT //// // ////// 02/M01 Q1025 ///
15:20
U
2 °C 0 m - 060° 060° 9 kt METAR ETWM 021420Z AUTO 06009KT //// // ////// 02/M00 Q1025 ///
14:20
U
2 °C 0 m - 060° 060° 10 kt METAR ETWM 021320Z AUTO 06010KT //// // ////// 02/M00 Q1025 ///
13:20
U
2 °C 0 m - 050° 050° 10 kt METAR ETWM 021220Z AUTO 05010KT //// // ////// 02/M00 Q1025 ///
12:20
U
1 °C 0 m - 050° 050° 10 kt METAR ETWM 021120Z AUTO 05010KT //// // ////// 01/M00 Q1025 ///
11:20
I
1 °C 4,8 km 600 ft 050° 050° 9 kt METAR ETWM 021020Z 05009KT 4800 -DZ BR FEW004 BKN006 01/M00 Q1026 YLO
10:50
I
1 °C 5 km 600 ft 060° 060° 7 kt METAR ETWM 020950Z 06007KT 5000 BR FEW004 BKN006 01/00 Q1026 YLO
10:20
I
1 °C 4,5 km 600 ft 040° 040° 8 kt METAR ETWM 020920Z 04008KT 4500 -DZ BR SCT004 BKN006 01/00 Q1026 YLO
09:48
I
1 °C 4,2 km 600 ft 050° 050° 7 kt METAR ETWM 020848Z 05007KT 4200 -DZ BR SCT004 BKN006 01/01 Q1026 YLO
09:20
I
1 °C 5 km 800 ft 050° 050° 5 kt METAR ETWM 020820Z 05005KT 5000 BR SCT006 BKN008 01/00 Q1026 GRN
08:20
M
2 °C 6 km 1.000 ft 060° 060° 5 kt METAR ETWM 020720Z 06005KT 6000 SCT008 BKN010 02/00 Q1025 GRN
07:20
I
2 °C 5 km 800 ft 050° 050° 5 kt METAR ETWM 020620Z 05005KT 5000 BR BKN008 02/00 Q1025 GRN
06:20
I
2 °C 6 km 800 ft 040° 040° 7 kt METAR ETWM 020520Z 04007KT 6000 BKN008 02/00 Q1025 GRN
05:20
U
2 °C 0 m - 040° 040° 6 kt METAR ETWM 020420Z AUTO 04006KT //// // ////// 02/01 Q1025 ///
04:20
U
2 °C 0 m - 040° 040° 4 kt METAR ETWM 020320Z AUTO 04004KT //// // ////// 02/01 Q1026 ///
03:20
U
2 °C 0 m - 050° 050° 7 kt METAR ETWM 020220Z AUTO 05007KT //// // ////// 02/01 Q1026 ///
02:20
U
2 °C 0 m - 030° 030° 6 kt METAR ETWM 020120Z AUTO 03006KT //// // ////// 02/01 Q1026 ///
01:20
U
2 °C 0 m - 030° 030° 5 kt METAR ETWM 020020Z AUTO 03005KT //// // ////// 02/00 Q1027 ///
00:20
U
3 °C 0 m - 040° 040° 6 kt METAR ETWM 012320Z AUTO 04006KT //// // ////// 03/00 Q1027 ///

1 grudnia 2022

Czas Kod Pogoda Temp. Widoczność Sufit Wiatr METAR/SPECI
23:20
U
3 °C 0 m - 080° 080° 5 kt METAR ETWM 012220Z AUTO 08005KT //// // ////// 03/01 Q1027 ///
22:20
U
3 °C 0 m - 070° 070° 3 kt METAR ETWM 012120Z AUTO 07003KT //// // ////// 03/02 Q1027 ///
21:20
U
4 °C 0 m - 060° 060° 4 kt METAR ETWM 012020Z AUTO 06004KT //// // ////// 04/02 Q1028 ///
20:20
U
4 °C 0 m - 060° 060° 3 kt METAR ETWM 011920Z AUTO 06003KT //// // ////// 04/02 Q1028 ///
19:20
U
4 °C 0 m - 060° 060° 4 kt METAR ETWM 011820Z AUTO 06004KT //// // ////// 04/02 Q1027 ///
18:20
U
4 °C 0 m - 050° 050° 4 kt METAR ETWM 011720Z AUTO 05004KT //// // ////// 04/02 Q1027 ///
17:20
U
4 °C 0 m - 030° 030° 4 kt METAR ETWM 011620Z AUTO 03004KT //// // ////// 04/03 Q1027 ///
16:20
I
5 °C 4,2 km 1.400 ft 030° 030° 4 kt METAR ETWM 011520Z 03004KT 4200 BR FEW009 BKN014 05/03 Q1027 GRN
16:01
I
5 °C 4,2 km 1.400 ft 030° 030° 3 kt METAR ETWM 011501Z 03003KT 4200 BR SCT007 BKN014 05/03 Q1027 GRN
15:20
I
5 °C 3,8 km 700 ft 030° 030° 4 kt METAR ETWM 011420Z 03004KT 3800 BR BKN007 05/04 Q1027 GRN
14:20
I
5 °C 4 km 800 ft 040° 040° 4 kt METAR ETWM 011320Z 04004KT 4000 BR SCT006 BKN008 05/04 Q1027 GRN
13:20
I
5 °C 3,8 km 900 ft 050° 050° 5 kt METAR ETWM 011220Z 05005KT 3800 BR FEW003 SCT006 BKN009 05/04 Q1027 GRN
12:20
L
5 °C 4,5 km 400 ft 030° 030° 4 kt METAR ETWM 011120Z 03004KT 4500 BR SCT002 BKN004 05/04 Q1028 YLO
11:20
I
5 °C 5 km 500 ft 050° 050° 4 kt METAR ETWM 011020Z 05004KT 5000 BR BKN005 05/04 Q1028 YLO
10:20
I
5 °C 5 km 600 ft 010° 010° 4 kt METAR ETWM 010920Z 01004KT 5000 BR FEW005 BKN006 05/04 Q1028 YLO
09:20
I
5 °C 4,7 km 700 ft 010° 010° 3 kt METAR ETWM 010820Z 01003KT 4700 BR BKN007 BKN029 05/04 Q1028 GRN
08:50
I
5 °C 4,5 km 800 ft 360° 360° 4 kt METAR ETWM 010750Z 36004KT 4500 BR BKN008 BKN027 05/04 Q1028 GRN
08:20
I
5 °C 4,5 km 2.700 ft Var Var 3 kt METAR ETWM 010720Z VRB03KT 4500 BR FEW009 BKN027 05/04 Q1027 GRN
07:20
I
5 °C 4,5 km 2.600 ft 030° 030° 6 kt METAR ETWM 010620Z 03006KT 4500 BR SCT007 BKN026 05/04 Q1027 GRN
06:20
I
5 °C 4,1 km 600 ft 010° 010° 4 kt METAR ETWM 010520Z 01004KT 4100 BR BKN006 05/04 Q1027 YLO
05:20
U
5 °C 0 m - 010° 010° 4 kt METAR ETWM 010420Z AUTO 01004KT //// // ////// 05/04 Q1027 ///
04:20
U
5 °C 0 m - 010° 010° 4 kt METAR ETWM 010320Z AUTO 01004KT //// // ////// 05/04 Q1027 ///
03:20
U
5 °C 0 m - 010° 010° 6 kt METAR ETWM 010220Z AUTO 01006KT //// // ////// 05/04 Q1027 ///
02:20
U
5 °C 0 m - 010° 010° 5 kt METAR ETWM 010120Z AUTO 01005KT //// // ////// 05/04 Q1027 ///
01:20
U
5 °C 0 m - 010° 010° 6 kt METAR ETWM 010020Z AUTO 01006KT //// // ////// 05/04 Q1027 ///
00:20
U
5 °C 0 m - 010° 010° 6 kt METAR ETWM 302320Z AUTO 01006KT //// // ////// 05/04 Q1027 ///

30 listopada 2022

Czas Kod Pogoda Temp. Widoczność Sufit Wiatr METAR/SPECI
23:20
U
5 °C 0 m - 010° 010° 5 kt METAR ETWM 302220Z AUTO 01005KT //// // ////// 05/04 Q1027 ///
22:20
U
5 °C 0 m - 360° 360° 4 kt METAR ETWM 302120Z AUTO 36004KT //// // ////// 05/04 Q1027 ///
21:20
U
5 °C 0 m - 020° 020° 4 kt METAR ETWM 302020Z AUTO 02004KT //// // ////// 05/05 Q1026 ///
20:20
U
5 °C 0 m - 010° 010° 5 kt METAR ETWM 301920Z AUTO 01005KT //// // ////// 05/05 Q1026 ///
19:20
U
5 °C 0 m - 010° 010° 4 kt METAR ETWM 301820Z AUTO 01004KT //// // ////// 05/05 Q1026 ///
18:20
U
5 °C 0 m - 010° 010° 4 kt METAR ETWM 301720Z AUTO 01004KT //// // ////// 05/04 Q1025 ///
17:20
U
5 °C 0 m - 020° 020° 4 kt METAR ETWM 301620Z AUTO 02004KT //// // ////// 05/04 Q1025 ///
16:20
I
5 °C 4,5 km 500 ft 360° 360° 5 kt METAR ETWM 301520Z 36005KT 4500 -DZ BR SCT003 BKN005 05/04 Q1025 YLO
15:20
L
5 °C 6 km 400 ft 030° 030° 5 kt METAR ETWM 301420Z 03005KT 6000 -DZ BKN004 05/05 Q1025 YLO
14:20
I
5 °C 5 km 800 ft 010° 010° 5 kt METAR ETWM 301320Z 01005KT 5000 -RADZ BR FEW003 SCT006 BKN008 05/05 Q1024 GRN
13:20
I
5 °C 5 km 500 ft 010° 010° 5 kt METAR ETWM 301220Z 01005KT 5000 -DZ SCT003 BKN005 05/05 Q1024 YLO
12:20
L
5 °C 6 km 300 ft 010° 010° 4 kt METAR ETWM 301120Z 01004KT 6000 -DZ FEW002 BKN003 BKN007 05/05 Q1024 YLO
11:20
L
5 °C 3,7 km 400 ft 020° 020° 4 kt METAR ETWM 301020Z 02004KT 3700 -DZ BR SCT002 BKN004 05/05 Q1024 YLO
10:49
I
5 °C 5 km 600 ft 010° 010° 4 kt SPECI ETWM 300949Z 01004KT 5000 BR FEW002 SCT004 BKN006 05/05 Q1024 YLO

My i strony trzecie śledzimy Twoje zachowanie internetowe na naszej stronie za pomocą plików cookie. Jeśli kontynuujesz, zakładamy, że zgadzasz się z naszymi polityka plików cookie.